Strona główna
Zdjęcia satelitarne 10-dni prognozyKlimatMeteorologia morska Cyklony Błyskawica LotniskoFAQ Gazetka O
Pogoda : Europa Afryka Ameryka Północna Ameryka Południowa Azja Australia-Oceania Inny
Języki Kontakt

Katowice, Polska

Port lotniczy Katowice-Pyrzowice

Szerokość geograficzna: 50-28-27N, Długość geograficzna: 019-04-48E, wysokość: 284 m


METAR: EPKT 050330Z 22005KT 9999 -SN BKN030 01/M04 Q1025
TAF: EPKT 050230Z 0503/0512 23007KT 7000 NSC TEMPO 0504/0512 BKN020CB PROB40 TEMPO 0504/0508 2000 BR

czas: 05:02 (04:02 UTC)

Aktualna obserwacja pogody

Raport powstał 32 minut temu, godzina 03:30 UTC
Wiatr 5 kt od południowy zachód
Temperatura 1°C
Wilgotność 69%
Ciśnienie 1025 hPa
Widzialność 10 km lub więcej
Przerywane chmury na wysokości 3000 ft
słaby śnieg

Jednostka miary

Prognoza

Raport powstał 1 godzina i 32 minut temu, godzina 02:30 UTC
Prognoza ważna od 05 godzina 03 UTC do 05 godzina 12 UTC
Wiatr 7 kt od południowy zachód
Widzialność: 7000 m
Przejściowo
od 05 godzina 04 UTC do 05 godzina 12 UTC
Przerywane chmury na wysokości 2000 ft, Cumulonimbus.
Prawdopodobieństwo 40% :
Przejściowo
od 05 godzina 04 UTC do 05 godzina 08 UTC
Widzialność: 2000 m
zamglenie
Informacje na tej stronie internetowej podlegają klauzuli o wyłączeniu odpowiedzialności
Pogoda : Europa Afryka Ameryka Północna Ameryka Południowa Azja Australia-Oceania Inny
Zdjęcia satelitarne 10-dni prognozyKlimatMeteorologia morska Cyklony Błyskawica LotniskoFAQ Języki Kontakt Gazetka O